sensor_id;sensor_type;location;lat;lon;timestamp;pressure;altitude;pressure_sealevel;temperature;humidity
79617;BME280;69097;52.132;5.422;2023-12-07T00:02:09;102166.69;;;0.28;93.00
79617;BME280;69097;52.132;5.422;2023-12-07T00:04:36;102165.84;;;0.27;93.44
79617;BME280;69097;52.132;5.422;2023-12-07T00:07:02;102161.63;;;0.30;93.08
79617;BME280;69097;52.132;5.422;2023-12-07T00:09:29;102164.41;;;0.30;93.11
79617;BME280;69097;52.132;5.422;2023-12-07T00:11:55;102162.66;;;0.25;92.97
79617;BME280;69097;52.132;5.422;2023-12-07T00:14:22;102165.25;;;0.22;93.28
79617;BME280;69097;52.132;5.422;2023-12-07T00:16:48;102157.63;;;0.19;93.28
79617;BME280;69097;52.132;5.422;2023-12-07T00:19:15;102168.19;;;0.17;93.45
79617;BME280;69097;52.132;5.422;2023-12-07T00:21:41;102160.56;;;0.14;93.38
79617;BME280;69097;52.132;5.422;2023-12-07T00:24:08;102165.13;;;0.10;93.61
79617;BME280;69097;52.132;5.422;2023-12-07T00:26:34;102169.34;;;0.07;93.62
79617;BME280;69097;52.132;5.422;2023-12-07T00:29:01;102160.63;;;0.05;93.93
79617;BME280;69097;52.132;5.422;2023-12-07T00:31:27;102161.91;;;0.08;94.09
79617;BME280;69097;52.132;5.422;2023-12-07T00:33:54;102159.94;;;0.08;93.97
79617;BME280;69097;52.132;5.422;2023-12-07T00:36:20;102156.22;;;0.04;94.04
79617;BME280;69097;52.132;5.422;2023-12-07T00:38:47;102148.63;;;0.01;93.76
79617;BME280;69097;52.132;5.422;2023-12-07T00:41:14;102150.06;;;-0.02;93.59
79617;BME280;69097;52.132;5.422;2023-12-07T00:43:40;102151.22;;;-0.03;93.73
79617;BME280;69097;52.132;5.422;2023-12-07T00:46:07;102146.19;;;-0.01;93.93
79617;BME280;69097;52.132;5.422;2023-12-07T00:48:34;102158.34;;;-0.02;94.17
79617;BME280;69097;52.132;5.422;2023-12-07T00:51:01;102156.25;;;-0.05;94.39
79617;BME280;69097;52.132;5.422;2023-12-07T00:53:27;102154.66;;;-0.06;94.00
79617;BME280;69097;52.132;5.422;2023-12-07T00:55:54;102152.56;;;-0.09;93.99
79617;BME280;69097;52.132;5.422;2023-12-07T00:58:20;102155.94;;;-0.12;93.98
79617;BME280;69097;52.132;5.422;2023-12-07T01:00:47;102154.66;;;-0.14;93.97
79617;BME280;69097;52.132;5.422;2023-12-07T01:03:14;102149.50;;;-0.16;94.09
79617;BME280;69097;52.132;5.422;2023-12-07T01:05:40;102148.34;;;-0.15;93.87
79617;BME280;69097;52.132;5.422;2023-12-07T01:08:07;102146.25;;;-0.18;94.18
79617;BME280;69097;52.132;5.422;2023-12-07T01:10:33;102148.19;;;-0.18;94.16
79617;BME280;69097;52.132;5.422;2023-12-07T01:13:00;102152.44;;;-0.21;94.12
79617;BME280;69097;52.132;5.422;2023-12-07T01:15:26;102153.06;;;-0.24;94.05
79617;BME280;69097;52.132;5.422;2023-12-07T01:17:53;102153.88;;;-0.23;94.12
79617;BME280;69097;52.132;5.422;2023-12-07T01:20:20;102158.56;;;-0.24;94.22
79617;BME280;69097;52.132;5.422;2023-12-07T01:22:46;102158.28;;;-0.22;93.83
79617;BME280;69097;52.132;5.422;2023-12-07T01:25:13;102161.31;;;-0.24;93.84
79617;BME280;69097;52.132;5.422;2023-12-07T01:27:46;102163.97;;;-0.27;93.74
79617;BME280;69097;52.132;5.422;2023-12-07T01:30:13;102168.97;;;-0.29;93.81
79617;BME280;69097;52.132;5.422;2023-12-07T01:32:39;102167.00;;;-0.29;93.98
79617;BME280;69097;52.132;5.422;2023-12-07T01:35:06;102164.59;;;-0.30;94.10
79617;BME280;69097;52.132;5.422;2023-12-07T01:37:33;102163.47;;;-0.29;94.00
79617;BME280;69097;52.132;5.422;2023-12-07T01:39:59;102167.84;;;-0.28;94.25
79617;BME280;69097;52.132;5.422;2023-12-07T01:42:26;102168.66;;;-0.28;94.35
79617;BME280;69097;52.132;5.422;2023-12-07T01:44:52;102180.78;;;-0.29;94.24
79617;BME280;69097;52.132;5.422;2023-12-07T01:47:19;102173.34;;;-0.28;94.21
79617;BME280;69097;52.132;5.422;2023-12-07T01:49:45;102170.09;;;-0.30;94.12
79617;BME280;69097;52.132;5.422;2023-12-07T01:52:12;102170.09;;;-0.30;94.18
79617;BME280;69097;52.132;5.422;2023-12-07T01:54:39;102177.09;;;-0.33;93.91
79617;BME280;69097;52.132;5.422;2023-12-07T01:57:06;102178.22;;;-0.34;93.92
79617;BME280;69097;52.132;5.422;2023-12-07T01:59:33;102169.81;;;-0.37;94.25
79617;BME280;69097;52.132;5.422;2023-12-07T02:01:59;102173.69;;;-0.38;94.38
79617;BME280;69097;52.132;5.422;2023-12-07T02:04:26;102168.50;;;-0.40;94.59
79617;BME280;69097;52.132;5.422;2023-12-07T02:06:57;102172.88;;;-0.39;94.67
79617;BME280;69097;52.132;5.422;2023-12-07T02:09:23;102176.78;;;-0.40;94.53
79617;BME280;69097;52.132;5.422;2023-12-07T02:11:50;102170.44;;;-0.40;94.19
79617;BME280;69097;52.132;5.422;2023-12-07T02:14:16;102168.84;;;-0.41;94.03
79617;BME280;69097;52.132;5.422;2023-12-07T02:16:48;102165.28;;;-0.42;94.14
79617;BME280;69097;52.132;5.422;2023-12-07T02:19:41;102164.78;;;-0.44;94.24
79617;BME280;69097;52.132;5.422;2023-12-07T02:22:18;102158.81;;;-0.46;94.24
79617;BME280;69097;52.132;5.422;2023-12-07T02:25:07;102170.28;;;-0.44;94.63
79617;BME280;69097;52.132;5.422;2023-12-07T02:27:35;102169.00;;;-0.38;94.09
79617;BME280;69097;52.132;5.422;2023-12-07T02:30:01;102163.81;;;-0.39;94.05
79617;BME280;69097;52.132;5.422;2023-12-07T02:32:28;102169.66;;;-0.41;94.15
79617;BME280;69097;52.132;5.422;2023-12-07T02:34:54;102162.34;;;-0.45;93.78
79617;BME280;69097;52.132;5.422;2023-12-07T02:37:21;102168.69;;;-0.45;93.94
79617;BME280;69097;52.132;5.422;2023-12-07T02:39:51;102169.34;;;-0.48;93.90
79617;BME280;69097;52.132;5.422;2023-12-07T02:42:19;102167.72;;;-0.49;93.96
79617;BME280;69097;52.132;5.422;2023-12-07T02:44:47;102177.13;;;-0.50;94.54
79617;BME280;69097;52.132;5.422;2023-12-07T02:47:13;102169.69;;;-0.49;94.33
79617;BME280;69097;52.132;5.422;2023-12-07T02:49:40;102166.91;;;-0.49;94.35
79617;BME280;69097;52.132;5.422;2023-12-07T02:52:06;102163.84;;;-0.48;94.59
79617;BME280;69097;52.132;5.422;2023-12-07T02:54:33;102164.63;;;-0.47;94.71
79617;BME280;69097;52.132;5.422;2023-12-07T02:56:59;102158.63;;;-0.41;94.42
79617;BME280;69097;52.132;5.422;2023-12-07T02:59:26;102151.16;;;-0.40;94.64
79617;BME280;69097;52.132;5.422;2023-12-07T03:01:52;102155.88;;;-0.41;94.44
79617;BME280;69097;52.132;5.422;2023-12-07T03:04:19;102161.41;;;-0.41;95.20
79617;BME280;69097;52.132;5.422;2023-12-07T03:06:45;102157.31;;;-0.35;94.61
79617;BME280;69097;52.132;5.422;2023-12-07T03:09:12;102164.91;;;-0.32;94.59
79617;BME280;69097;52.132;5.422;2023-12-07T03:11:38;102167.84;;;-0.28;94.67
79617;BME280;69097;52.132;5.422;2023-12-07T03:14:04;102163.97;;;-0.27;94.53
79617;BME280;69097;52.132;5.422;2023-12-07T03:16:31;102166.22;;;-0.29;94.63
79617;BME280;69097;52.132;5.422;2023-12-07T03:18:58;102173.19;;;-0.32;94.68
79617;BME280;69097;52.132;5.422;2023-12-07T03:21:24;102177.09;;;-0.33;94.44
79617;BME280;69097;52.132;5.422;2023-12-07T03:23:51;102177.28;;;-0.38;95.07
79617;BME280;69097;52.132;5.422;2023-12-07T03:26:17;102175.16;;;-0.41;94.47
79617;BME280;69097;52.132;5.422;2023-12-07T03:28:44;102182.94;;;-0.43;94.64
79617;BME280;69097;52.132;5.422;2023-12-07T03:31:10;102180.19;;;-0.43;94.92
79617;BME280;69097;52.132;5.422;2023-12-07T03:33:37;102184.56;;;-0.42;95.04
79617;BME280;69097;52.132;5.422;2023-12-07T03:36:04;102169.19;;;-0.43;94.96
79617;BME280;69097;52.132;5.422;2023-12-07T03:38:31;102175.00;;;-0.44;94.78
79617;BME280;69097;52.132;5.422;2023-12-07T03:40:57;102176.13;;;-0.45;94.62
79617;BME280;69097;52.132;5.422;2023-12-07T03:43:24;102184.56;;;-0.42;94.70
79617;BME280;69097;52.132;5.422;2023-12-07T03:45:50;102175.63;;;-0.39;94.79
79617;BME280;69097;52.132;5.422;2023-12-07T03:48:18;102178.22;;;-0.34;94.46
79617;BME280;69097;52.132;5.422;2023-12-07T03:50:44;102180.97;;;-0.34;94.41
79617;BME280;69097;52.132;5.422;2023-12-07T03:53:11;102182.78;;;-0.38;94.59
79617;BME280;69097;52.132;5.422;2023-12-07T03:55:38;102175.16;;;-0.41;94.20
79617;BME280;69097;52.132;5.422;2023-12-07T03:58:05;102181.81;;;-0.42;94.46
79617;BME280;69097;52.132;5.422;2023-12-07T04:00:32;102175.00;;;-0.44;94.19
79617;BME280;69097;52.132;5.422;2023-12-07T04:02:59;102183.59;;;-0.46;94.69
79617;BME280;69097;52.132;5.422;2023-12-07T04:05:25;102178.72;;;-0.49;94.78
79617;BME280;69097;52.132;5.422;2023-12-07T04:07:51;102174.84;;;-0.48;94.52
79617;BME280;69097;52.132;5.422;2023-12-07T04:10:18;102182.94;;;-0.43;94.30
79617;BME280;69097;52.132;5.422;2023-12-07T04:12:44;102190.06;;;-0.42;94.86
79617;BME280;69097;52.132;5.422;2023-12-07T04:15:11;102174.34;;;-0.41;94.92
79617;BME280;69097;52.132;5.422;2023-12-07T04:17:40;102180.53;;;-0.44;94.90
79617;BME280;69097;52.132;5.422;2023-12-07T04:20:07;102179.03;;;-0.42;94.77
79617;BME280;69097;52.132;5.422;2023-12-07T04:22:33;102179.38;;;-0.43;94.71
79617;BME280;69097;52.132;5.422;2023-12-07T04:25:00;102183.91;;;-0.47;94.88
79617;BME280;69097;52.132;5.422;2023-12-07T04:27:27;102177.59;;;-0.48;94.57
79617;BME280;69097;52.132;5.422;2023-12-07T04:29:53;102177.13;;;-0.50;94.86
79617;BME280;69097;52.132;5.422;2023-12-07T04:32:20;102184.06;;;-0.52;94.83
79617;BME280;69097;52.132;5.422;2023-12-07T04:34:46;102189.47;;;-0.56;94.65
79617;BME280;69097;52.132;5.422;2023-12-07T04:37:13;102187.00;;;-0.57;94.75
79617;BME280;69097;52.132;5.422;2023-12-07T04:39:41;102179.72;;;-0.62;94.33
79617;BME280;69097;52.132;5.422;2023-12-07T04:42:07;102178.78;;;-0.66;94.56
79617;BME280;69097;52.132;5.422;2023-12-07T04:44:33;102182.16;;;-0.69;94.77
79617;BME280;69097;52.132;5.422;2023-12-07T04:47:00;102188.47;;;-0.68;94.90
79617;BME280;69097;52.132;5.422;2023-12-07T04:49:27;102188.16;;;-0.67;94.44
79617;BME280;69097;52.132;5.422;2023-12-07T04:51:53;102188.47;;;-0.68;94.54
79617;BME280;69097;52.132;5.422;2023-12-07T04:54:19;102185.41;;;-0.67;95.22
79617;BME280;69097;52.132;5.422;2023-12-07T04:56:46;102185.72;;;-0.60;95.05
79617;BME280;69097;52.132;5.422;2023-12-07T04:59:13;102181.03;;;-0.59;95.35
79617;BME280;69097;52.132;5.422;2023-12-07T05:01:39;102181.81;;;-0.59;94.82
79617;BME280;69097;52.132;5.422;2023-12-07T05:04:06;102171.94;;;-0.60;95.40
79617;BME280;69097;52.132;5.422;2023-12-07T05:06:34;102173.38;;;-0.62;95.37
79617;BME280;69097;52.132;5.422;2023-12-07T05:09:01;102174.22;;;-0.62;95.36
79617;BME280;69097;52.132;5.422;2023-12-07T05:11:28;102173.88;;;-0.60;95.75
79617;BME280;69097;52.132;5.422;2023-12-07T05:13:54;102174.53;;;-0.55;96.03
79617;BME280;69097;52.132;5.422;2023-12-07T05:16:20;102169.03;;;-0.55;95.84
79617;BME280;69097;52.132;5.422;2023-12-07T05:18:47;102160.44;;;-0.53;95.63
79617;BME280;69097;52.132;5.422;2023-12-07T05:21:14;102164.34;;;-0.54;95.89
79617;BME280;69097;52.132;5.422;2023-12-07T05:23:40;102161.56;;;-0.54;96.20
79617;BME280;69097;52.132;5.422;2023-12-07T05:26:06;102163.50;;;-0.55;96.14
79617;BME280;69097;52.132;5.422;2023-12-07T05:28:36;102161.41;;;-0.49;96.30
79617;BME280;69097;52.132;5.422;2023-12-07T05:31:02;102158.47;;;-0.44;95.90
79617;BME280;69097;52.132;5.422;2023-12-07T05:33:29;102151.34;;;-0.45;96.31
79617;BME280;69097;52.132;5.422;2023-12-07T05:35:56;102157.50;;;-0.48;96.44
79617;BME280;69097;52.132;5.422;2023-12-07T05:38:22;102161.88;;;-0.47;96.55
79617;BME280;69097;52.132;5.422;2023-12-07T05:40:48;102164.47;;;-0.42;96.30
79617;BME280;69097;52.132;5.422;2023-12-07T05:43:15;102160.91;;;-0.43;96.25
79617;BME280;69097;52.132;5.422;2023-12-07T05:45:44;102145.03;;;-0.46;96.62
79617;BME280;69097;52.132;5.422;2023-12-07T05:48:11;102153.75;;;-0.44;96.55
79617;BME280;69097;52.132;5.422;2023-12-07T05:50:38;102165.75;;;-0.40;96.90
79617;BME280;69097;52.132;5.422;2023-12-07T05:53:06;102154.22;;;-0.33;96.86
79617;BME280;69097;52.132;5.422;2023-12-07T05:55:32;102158.63;;;-0.32;96.97
79617;BME280;69097;52.132;5.422;2023-12-07T05:57:59;102161.38;;;-0.32;97.05
79617;BME280;69097;52.132;5.422;2023-12-07T06:00:26;102155.19;;;-0.29;97.24
79617;BME280;69097;52.132;5.422;2023-12-07T06:02:52;102155.19;;;-0.29;97.32
79617;BME280;69097;52.132;5.422;2023-12-07T06:05:19;102157.63;;;-0.28;97.42
79617;BME280;69097;52.132;5.422;2023-12-07T06:07:45;102150.47;;;-0.29;97.29
79617;BME280;69097;52.132;5.422;2023-12-07T06:10:12;102158.91;;;-0.25;97.76
79617;BME280;69097;52.132;5.422;2023-12-07T06:12:39;102160.22;;;-0.23;97.75
79617;BME280;69097;52.132;5.422;2023-12-07T06:15:06;102172.66;;;-0.17;97.75
79617;BME280;69097;52.132;5.422;2023-12-07T06:17:33;102169.91;;;-0.17;98.05
79617;BME280;69097;52.132;5.422;2023-12-07T06:20:00;102175.25;;;-0.12;97.87
79617;BME280;69097;52.132;5.422;2023-12-07T06:22:26;102171.69;;;-0.12;97.89
79617;BME280;69097;52.132;5.422;2023-12-07T06:24:53;102179.66;;;-0.11;97.95
79617;BME280;69097;52.132;5.422;2023-12-07T06:27:20;102173.31;;;-0.11;98.30
79617;BME280;69097;52.132;5.422;2023-12-07T06:29:46;102189.69;;;-0.06;98.16
79617;BME280;69097;52.132;5.422;2023-12-07T06:32:14;102177.97;;;-0.03;98.42
79617;BME280;69097;52.132;5.422;2023-12-07T06:34:41;102181.22;;;-0.01;98.28
79617;BME280;69097;52.132;5.422;2023-12-07T06:37:08;102183.16;;;-0.02;98.13
79617;BME280;69097;52.132;5.422;2023-12-07T06:39:36;102176.53;;;-0.01;98.19
79617;BME280;69097;52.132;5.422;2023-12-07T06:42:03;102187.38;;;0.05;98.14
79617;BME280;69097;52.132;5.422;2023-12-07T06:44:30;102179.78;;;0.02;98.25
79617;BME280;69097;52.132;5.422;2023-12-07T06:46:56;102184.13;;;0.03;98.71
79617;BME280;69097;52.132;5.422;2023-12-07T06:49:23;102180.22;;;0.03;98.37
79617;BME280;69097;52.132;5.422;2023-12-07T06:52:00;102174.06;;;0.07;98.45
79617;BME280;69097;52.132;5.422;2023-12-07T06:54:26;102187.38;;;0.05;98.44
79617;BME280;69097;52.132;5.422;2023-12-07T06:56:53;102188.03;;;0.02;98.49
79617;BME280;69097;52.132;5.422;2023-12-07T06:59:19;102185.28;;;0.02;98.68
79617;BME280;69097;52.132;5.422;2023-12-07T07:01:46;102184.28;;;0.06;99.25
79617;BME280;69097;52.132;5.422;2023-12-07T07:04:13;102182.34;;;0.07;98.53
79617;BME280;69097;52.132;5.422;2023-12-07T07:06:40;102188.31;;;0.09;98.23
79617;BME280;69097;52.132;5.422;2023-12-07T07:09:07;102180.38;;;0.07;98.28
79617;BME280;69097;52.132;5.422;2023-12-07T07:11:33;102177.94;;;0.06;98.43
79617;BME280;69097;52.132;5.422;2023-12-07T07:14:01;102174.25;;;0.02;98.45
79617;BME280;69097;52.132;5.422;2023-12-07T07:16:27;102179.44;;;0.03;98.22
79617;BME280;69097;52.132;5.422;2023-12-07T07:18:54;102185.44;;;0.05;98.61
79617;BME280;69097;52.132;5.422;2023-12-07T07:21:20;102185.09;;;0.07;98.51
79617;BME280;69097;52.132;5.422;2023-12-07T07:23:47;102189.31;;;0.04;98.35
79617;BME280;69097;52.132;5.422;2023-12-07T07:26:14;102182.19;;;0.03;98.50
79617;BME280;69097;52.132;5.422;2023-12-07T07:28:43;102185.75;;;0.03;98.41
79617;BME280;69097;52.132;5.422;2023-12-07T07:31:10;102194.50;;;0.06;98.38
79617;BME280;69097;52.132;5.422;2023-12-07T07:33:37;102192.22;;;0.08;98.51
79617;BME280;69097;52.132;5.422;2023-12-07T07:36:04;102191.91;;;0.09;98.70
79617;BME280;69097;52.132;5.422;2023-12-07T07:38:30;102199.84;;;0.11;98.52
79617;BME280;69097;52.132;5.422;2023-12-07T07:40:57;102193.53;;;0.10;98.45
79617;BME280;69097;52.132;5.422;2023-12-07T07:43:23;102194.81;;;0.13;98.75
79617;BME280;69097;52.132;5.422;2023-12-07T07:45:50;102193.84;;;0.09;98.62
79617;BME280;69097;52.132;5.422;2023-12-07T07:48:16;102193.22;;;0.03;98.07
79617;BME280;69097;52.132;5.422;2023-12-07T07:50:43;102189.66;;;0.03;98.41
79617;BME280;69097;52.132;5.422;2023-12-07T07:53:09;102190.13;;;0.05;98.64
79617;BME280;69097;52.132;5.422;2023-12-07T07:55:36;102191.25;;;0.03;98.73
79617;BME280;69097;52.132;5.422;2023-12-07T07:58:03;102193.72;;;0.05;98.39
79617;BME280;69097;52.132;5.422;2023-12-07T08:00:29;102201.84;;;0.02;98.27
79617;BME280;69097;52.132;5.422;2023-12-07T08:02:57;102199.44;;;-0.09;98.42
79617;BME280;69097;52.132;5.422;2023-12-07T08:05:24;102195.69;;;-0.13;98.25
79617;BME280;69097;52.132;5.422;2023-12-07T08:07:51;102198.44;;;-0.13;98.46
79617;BME280;69097;52.132;5.422;2023-12-07T08:10:17;102200.25;;;-0.17;98.32
79617;BME280;69097;52.132;5.422;2023-12-07T08:12:44;102195.38;;;-0.20;98.26
79617;BME280;69097;52.132;5.422;2023-12-07T08:15:10;102190.69;;;-0.19;98.45
79617;BME280;69097;52.132;5.422;2023-12-07T08:17:41;102193.44;;;-0.19;98.64
79617;BME280;69097;52.132;5.422;2023-12-07T08:20:09;102191.50;;;-0.19;98.75
79617;BME280;69097;52.132;5.422;2023-12-07T08:22:43;102199.13;;;-0.16;98.78
79617;BME280;69097;52.132;5.422;2023-12-07T08:25:10;102194.88;;;-0.13;98.69
79617;BME280;69097;52.132;5.422;2023-12-07T08:27:38;102200.72;;;-0.15;98.77
79617;BME280;69097;52.132;5.422;2023-12-07T08:30:05;102209.47;;;-0.13;98.90
79617;BME280;69097;52.132;5.422;2023-12-07T08:32:32;102192.28;;;-0.10;98.99
79617;BME280;69097;52.132;5.422;2023-12-07T08:34:59;102190.81;;;-0.07;98.91
79617;BME280;69097;52.132;5.422;2023-12-07T08:37:25;102192.59;;;-0.03;98.96
79617;BME280;69097;52.132;5.422;2023-12-07T08:39:52;102192.25;;;-0.01;98.93
79617;BME280;69097;52.132;5.422;2023-12-07T08:42:19;102188.38;;;0.00;98.96
79617;BME280;69097;52.132;5.422;2023-12-07T08:44:45;102191.25;;;0.03;98.76
79617;BME280;69097;52.132;5.422;2023-12-07T08:47:11;102194.34;;;0.02;98.82
79617;BME280;69097;52.132;5.422;2023-12-07T08:49:40;102201.34;;;-0.01;98.99
79617;BME280;69097;52.132;5.422;2023-12-07T08:52:07;102188.03;;;0.02;98.96
79617;BME280;69097;52.132;5.422;2023-12-07T08:54:53;102185.91;;;-0.02;99.10
79617;BME280;69097;52.132;5.422;2023-12-07T08:57:20;102188.38;;;0.00;98.65
79617;BME280;69097;52.132;5.422;2023-12-07T08:59:47;102193.41;;;-0.02;99.06
79617;BME280;69097;52.132;5.422;2023-12-07T09:02:14;102188.38;;;0.00;98.81
79617;BME280;69097;52.132;5.422;2023-12-07T09:04:48;102188.19;;;0.05;99.19
79617;BME280;69097;52.132;5.422;2023-12-07T09:07:18;102184.44;;;0.10;99.32
79617;BME280;69097;52.132;5.422;2023-12-07T09:09:45;102193.19;;;0.12;99.41
79617;BME280;69097;52.132;5.422;2023-12-07T09:12:14;102186.53;;;0.13;99.24
79617;BME280;69097;52.132;5.422;2023-12-07T09:14:45;102172.91;;;0.16;99.40
79617;BME280;69097;52.132;5.422;2023-12-07T09:17:12;102167.03;;;0.18;99.38
79617;BME280;69097;52.132;5.422;2023-12-07T09:19:38;102167.19;;;0.21;99.56
79617;BME280;69097;52.132;5.422;2023-12-07T09:22:05;102160.53;;;0.22;99.41
79617;BME280;69097;52.132;5.422;2023-12-07T09:24:31;102168.81;;;0.22;99.36
79617;BME280;69097;52.132;5.422;2023-12-07T09:26:58;102169.81;;;0.18;99.04
79617;BME280;69097;52.132;5.422;2023-12-07T09:29:25;102166.88;;;0.14;98.98
79617;BME280;69097;52.132;5.422;2023-12-07T09:31:51;102167.88;;;0.18;99.07
79617;BME280;69097;52.132;5.422;2023-12-07T09:34:18;102172.22;;;0.19;99.21
79617;BME280;69097;52.132;5.422;2023-12-07T09:36:45;102178.56;;;0.20;99.34
79617;BME280;69097;52.132;5.422;2023-12-07T09:39:12;102176.28;;;0.22;99.27
79617;BME280;69097;52.132;5.422;2023-12-07T09:41:40;102185.34;;;0.22;99.39
79617;BME280;69097;52.132;5.422;2023-12-07T09:44:08;102176.28;;;0.22;99.44
79617;BME280;69097;52.132;5.422;2023-12-07T09:46:35;102180.66;;;0.23;99.09
79617;BME280;69097;52.132;5.422;2023-12-07T09:49:01;102182.13;;;0.20;99.34
79617;BME280;69097;52.132;5.422;2023-12-07T09:51:28;102181.81;;;0.22;99.28
79617;BME280;69097;52.132;5.422;2023-12-07T09:53:57;102180.00;;;0.17;99.04
79617;BME280;69097;52.132;5.422;2023-12-07T09:56:25;102182.63;;;0.14;99.31
79617;BME280;69097;52.132;5.422;2023-12-07T09:58:52;102176.66;;;0.12;99.24
79617;BME280;69097;52.132;5.422;2023-12-07T10:01:19;102169.50;;;0.11;99.35
79617;BME280;69097;52.132;5.422;2023-12-07T10:04:22;102165.63;;;0.12;99.86
79617;BME280;69097;52.132;5.422;2023-12-07T10:06:53;102164.63;;;0.16;99.20
79617;BME280;69097;52.132;5.422;2023-12-07T10:09:20;102157.16;;;0.17;99.26
79617;BME280;69097;52.132;5.422;2023-12-07T10:12:04;102146.91;;;0.17;99.66
79617;BME280;69097;52.132;5.422;2023-12-07T10:14:31;102138.78;;;0.21;99.64
79617;BME280;69097;52.132;5.422;2023-12-07T10:16:59;102141.69;;;0.24;99.52
79617;BME280;69097;52.132;5.422;2023-12-07T10:19:26;102138.16;;;0.24;100.00
79617;BME280;69097;52.132;5.422;2023-12-07T10:21:59;102128.38;;;0.26;99.65
79617;BME280;69097;52.132;5.422;2023-12-07T10:24:26;102117.69;;;0.25;99.78
79617;BME280;69097;52.132;5.422;2023-12-07T10:26:54;102111.84;;;0.26;100.00
79617;BME280;69097;52.132;5.422;2023-12-07T10:29:29;102119.44;;;0.29;100.00
79617;BME280;69097;52.132;5.422;2023-12-07T10:32:01;102116.34;;;0.31;99.91
79617;BME280;69097;52.132;5.422;2023-12-07T10:34:29;102116.00;;;0.32;99.84
79617;BME280;69097;52.132;5.422;2023-12-07T10:36:56;102113.25;;;0.32;100.00
79617;BME280;69097;52.132;5.422;2023-12-07T10:39:24;102109.69;;;0.32;99.93
79617;BME280;69097;52.132;5.422;2023-12-07T10:42:02;102111.50;;;0.28;99.78
79617;BME280;69097;52.132;5.422;2023-12-07T10:44:29;102117.16;;;0.31;100.00
79617;BME280;69097;52.132;5.422;2023-12-07T10:46:56;102113.25;;;0.32;99.91
79617;BME280;69097;52.132;5.422;2023-12-07T10:49:25;102103.88;;;0.25;99.83
79617;BME280;69097;52.132;5.422;2023-12-07T10:52:05;102100.13;;;0.29;100.00
79617;BME280;69097;52.132;5.422;2023-12-07T10:54:48;102087.63;;;0.32;100.00
79617;BME280;69097;52.132;5.422;2023-12-07T10:57:17;102086.81;;;0.31;100.00
79617;BME280;69097;52.132;5.422;2023-12-07T10:59:47;102086.13;;;0.34;100.00
79617;BME280;69097;52.132;5.422;2023-12-07T11:02:18;102087.91;;;0.39;100.00
79617;BME280;69097;52.132;5.422;2023-12-07T11:04:47;102093.25;;;0.44;100.00
79617;BME280;69097;52.132;5.422;2023-12-07T11:07:17;102085.75;;;0.44;100.00
79617;BME280;69097;52.132;5.422;2023-12-07T11:09:52;102084.44;;;0.50;100.00
79617;BME280;69097;52.132;5.422;2023-12-07T11:12:47;102073.88;;;0.52;99.97
79617;BME280;69097;52.132;5.422;2023-12-07T11:15:16;102079.84;;;0.54;100.00
79617;BME280;69097;52.132;5.422;2023-12-07T11:17:50;102075.59;;;0.57;99.92
79617;BME280;69097;52.132;5.422;2023-12-07T11:20:22;102064.44;;;0.53;100.00
79617;BME280;69097;52.132;5.422;2023-12-07T11:22:59;102062.81;;;0.52;100.00
79617;BME280;69097;52.132;5.422;2023-12-07T11:25:27;102056.81;;;0.50;100.00
79617;BME280;69097;52.132;5.422;2023-12-07T11:28:03;102043.50;;;0.52;100.00
79617;BME280;69097;52.132;5.422;2023-12-07T11:30:34;102055.00;;;0.54;100.00
79617;BME280;69097;52.132;5.422;2023-12-07T11:33:05;102042.97;;;0.59;100.00
79617;BME280;69097;52.132;5.422;2023-12-07T11:35:32;102036.75;;;0.62;100.00
79617;BME280;69097;52.132;5.422;2023-12-07T11:38:07;102033.78;;;0.67;100.00
79617;BME280;69097;52.132;5.422;2023-12-07T11:40:41;102034.75;;;0.71;100.00
79617;BME280;69097;52.132;5.422;2023-12-07T11:43:18;102009.91;;;0.71;100.00
79617;BME280;69097;52.132;5.422;2023-12-07T11:45:56;102008.88;;;0.75;100.00
79617;BME280;69097;52.132;5.422;2023-12-07T11:48:22;102016.81;;;0.77;100.00
79617;BME280;69097;52.132;5.422;2023-12-07T11:53:24;102019.72;;;0.80;100.00
79617;BME280;69097;52.132;5.422;2023-12-07T11:55:52;102012.34;;;0.84;100.00
79617;BME280;69097;52.132;5.422;2023-12-07T11:58:19;102014.78;;;0.86;100.00
79617;BME280;69097;52.132;5.422;2023-12-07T12:00:47;102013.97;;;0.85;100.00
79617;BME280;69097;52.132;5.422;2023-12-07T12:03:14;102012.03;;;0.86;100.00
79617;BME280;69097;52.132;5.422;2023-12-07T12:05:41;102002.94;;;0.85;100.00
79617;BME280;69097;52.132;5.422;2023-12-07T12:08:10;101992.72;;;0.86;100.00
79617;BME280;69097;52.132;5.422;2023-12-07T12:10:40;101997.53;;;0.89;100.00
79617;BME280;69097;52.132;5.422;2023-12-07T12:13:09;101987.75;;;0.91;100.00
79617;BME280;69097;52.132;5.422;2023-12-07T12:15:38;101980.75;;;0.94;100.00
79617;BME280;69097;52.132;5.422;2023-12-07T12:18:06;101980.41;;;0.95;100.00
79617;BME280;69097;52.132;5.422;2023-12-07T12:20:33;101968.69;;;0.98;100.00
79617;BME280;69097;52.132;5.422;2023-12-07T12:23:01;101972.72;;;1.01;100.00
79617;BME280;69097;52.132;5.422;2023-12-07T12:25:29;101961.22;;;0.99;100.00
79617;BME280;69097;52.132;5.422;2023-12-07T12:28:04;101971.44;;;0.98;100.00
79617;BME280;69097;52.132;5.422;2023-12-07T12:30:32;101958.91;;;1.01;100.00
79617;BME280;69097;52.132;5.422;2023-12-07T12:32:59;101953.84;;;1.03;100.00
79617;BME280;69097;52.132;5.422;2023-12-07T12:35:26;101944.53;;;1.07;100.00
79617;BME280;69097;52.132;5.422;2023-12-07T12:37:53;101942.25;;;1.09;100.00
79617;BME280;69097;52.132;5.422;2023-12-07T12:40:22;101942.69;;;1.11;100.00
79617;BME280;69097;52.132;5.422;2023-12-07T12:42:51;101928.22;;;1.14;100.00
79617;BME280;69097;52.132;5.422;2023-12-07T12:45:21;101935.00;;;1.17;100.00
79617;BME280;69097;52.132;5.422;2023-12-07T12:47:48;101934.78;;;1.22;100.00
79617;BME280;69097;52.132;5.422;2023-12-07T12:50:35;101916.72;;;1.24;100.00
79617;BME280;69097;52.132;5.422;2023-12-07T12:53:04;101920.03;;;1.30;100.00
79617;BME280;69097;52.132;5.422;2023-12-07T12:55:39;101914.97;;;1.32;100.00
79617;BME280;69097;52.132;5.422;2023-12-07T12:58:06;101908.75;;;1.35;100.00
79617;BME280;69097;52.132;5.422;2023-12-07T13:00:34;101897.25;;;1.33;100.00